sensor_id;sensor_type;location;lat;lon;timestamp;P1;durP1;ratioP1;P2;durP2;ratioP2
61389;SDS011;47260;48.274;19.814;2023-05-18T00:01:24;0.85;;;0.65;;
61389;SDS011;47260;48.274;19.814;2023-05-18T00:02:57;0.70;;;0.70;;
61389;SDS011;47260;48.274;19.814;2023-05-18T00:04:30;1.13;;;0.57;;
61389;SDS011;47260;48.274;19.814;2023-05-18T00:06:03;1.85;;;0.77;;
61389;SDS011;47260;48.274;19.814;2023-05-18T00:07:36;2.60;;;0.47;;
61389;SDS011;47260;48.274;19.814;2023-05-18T00:09:07;1.23;;;0.40;;
61389;SDS011;47260;48.274;19.814;2023-05-18T00:10:38;1.25;;;0.47;;
61389;SDS011;47260;48.274;19.814;2023-05-18T00:12:10;0.63;;;0.60;;
61389;SDS011;47260;48.274;19.814;2023-05-18T00:13:41;0.57;;;0.50;;
61389;SDS011;47260;48.274;19.814;2023-05-18T00:15:12;0.73;;;0.50;;
61389;SDS011;47260;48.274;19.814;2023-05-18T00:16:44;1.15;;;0.43;;
61389;SDS011;47260;48.274;19.814;2023-05-18T00:18:16;1.42;;;0.43;;
61389;SDS011;47260;48.274;19.814;2023-05-18T00:19:48;1.23;;;0.68;;
61389;SDS011;47260;48.274;19.814;2023-05-18T00:21:20;0.73;;;0.60;;
61389;SDS011;47260;48.274;19.814;2023-05-18T00:22:52;0.63;;;0.60;;
61389;SDS011;47260;48.274;19.814;2023-05-18T00:24:23;3.88;;;0.50;;
61389;SDS011;47260;48.274;19.814;2023-05-18T00:25:55;1.15;;;0.68;;
61389;SDS011;47260;48.274;19.814;2023-05-18T00:27:28;1.95;;;0.50;;
61389;SDS011;47260;48.274;19.814;2023-05-18T00:28:58;2.58;;;0.70;;
61389;SDS011;47260;48.274;19.814;2023-05-18T00:30:30;0.88;;;0.50;;
61389;SDS011;47260;48.274;19.814;2023-05-18T00:32:02;1.80;;;0.80;;
61389;SDS011;47260;48.274;19.814;2023-05-18T00:33:34;0.57;;;0.50;;
61389;SDS011;47260;48.274;19.814;2023-05-18T00:35:07;0.32;;;0.32;;
61389;SDS011;47260;48.274;19.814;2023-05-18T00:36:39;0.88;;;0.52;;
61389;SDS011;47260;48.274;19.814;2023-05-18T00:38:12;0.65;;;0.50;;
61389;SDS011;47260;48.274;19.814;2023-05-18T00:39:46;1.90;;;1.40;;
61389;SDS011;47260;48.274;19.814;2023-05-18T00:41:18;9.63;;;3.75;;
61389;SDS011;47260;48.274;19.814;2023-05-18T00:42:50;5.45;;;2.20;;
61389;SDS011;47260;48.274;19.814;2023-05-18T00:44:22;3.35;;;1.95;;
61389;SDS011;47260;48.274;19.814;2023-05-18T00:45:54;8.52;;;3.20;;
61389;SDS011;47260;48.274;19.814;2023-05-18T00:47:25;4.28;;;2.17;;
61389;SDS011;47260;48.274;19.814;2023-05-18T00:48:56;2.35;;;1.20;;
61389;SDS011;47260;48.274;19.814;2023-05-18T00:50:32;3.72;;;1.23;;
61389;SDS011;47260;48.274;19.814;2023-05-18T00:52:04;3.03;;;1.27;;
61389;SDS011;47260;48.274;19.814;2023-05-18T00:53:35;3.05;;;1.00;;
61389;SDS011;47260;48.274;19.814;2023-05-18T00:55:07;4.07;;;0.80;;
61389;SDS011;47260;48.274;19.814;2023-05-18T00:56:41;0.50;;;0.50;;
61389;SDS011;47260;48.274;19.814;2023-05-18T00:58:15;1.00;;;0.43;;
61389;SDS011;47260;48.274;19.814;2023-05-18T00:59:47;1.52;;;0.60;;
61389;SDS011;47260;48.274;19.814;2023-05-18T01:01:21;1.35;;;0.82;;
61389;SDS011;47260;48.274;19.814;2023-05-18T01:02:57;1.92;;;0.57;;
61389;SDS011;47260;48.274;19.814;2023-05-18T01:04:29;2.05;;;0.80;;
61389;SDS011;47260;48.274;19.814;2023-05-18T01:06:02;2.50;;;0.85;;
61389;SDS011;47260;48.274;19.814;2023-05-18T01:07:35;2.15;;;0.60;;
61389;SDS011;47260;48.274;19.814;2023-05-18T01:09:08;2.22;;;1.20;;
61389;SDS011;47260;48.274;19.814;2023-05-18T01:10:41;2.35;;;1.23;;
61389;SDS011;47260;48.274;19.814;2023-05-18T01:12:16;2.03;;;0.98;;
61389;SDS011;47260;48.274;19.814;2023-05-18T01:13:53;1.25;;;0.90;;
61389;SDS011;47260;48.274;19.814;2023-05-18T01:15:29;3.40;;;1.52;;
61389;SDS011;47260;48.274;19.814;2023-05-18T01:17:10;0.88;;;0.75;;
61389;SDS011;47260;48.274;19.814;2023-05-18T01:18:48;3.08;;;1.23;;
61389;SDS011;47260;48.274;19.814;2023-05-18T01:20:34;2.95;;;0.95;;
61389;SDS011;47260;48.274;19.814;2023-05-18T01:22:20;3.88;;;1.20;;
61389;SDS011;47260;48.274;19.814;2023-05-18T01:24:03;3.25;;;1.08;;
61389;SDS011;47260;48.274;19.814;2023-05-18T01:25:58;1.08;;;0.90;;
61389;SDS011;47260;48.274;19.814;2023-05-18T01:27:37;1.48;;;0.90;;
61389;SDS011;47260;48.274;19.814;2023-05-18T01:29:11;1.83;;;0.70;;
61389;SDS011;47260;48.274;19.814;2023-05-18T01:30:44;0.82;;;0.50;;
61389;SDS011;47260;48.274;19.814;2023-05-18T01:32:16;2.35;;;0.55;;
61389;SDS011;47260;48.274;19.814;2023-05-18T01:33:48;0.60;;;0.50;;
61389;SDS011;47260;48.274;19.814;2023-05-18T01:35:20;1.23;;;0.50;;
61389;SDS011;47260;48.274;19.814;2023-05-18T01:36:51;0.65;;;0.40;;
61389;SDS011;47260;48.274;19.814;2023-05-18T01:38:25;0.68;;;0.43;;
61389;SDS011;47260;48.274;19.814;2023-05-18T01:39:57;1.73;;;0.90;;
61389;SDS011;47260;48.274;19.814;2023-05-18T01:41:33;0.73;;;0.40;;
61389;SDS011;47260;48.274;19.814;2023-05-18T01:43:09;0.90;;;0.43;;
61389;SDS011;47260;48.274;19.814;2023-05-18T01:44:42;1.02;;;0.40;;
61389;SDS011;47260;48.274;19.814;2023-05-18T01:46:20;0.82;;;0.43;;
61389;SDS011;47260;48.274;19.814;2023-05-18T01:48:02;1.85;;;0.77;;
61389;SDS011;47260;48.274;19.814;2023-05-18T01:49:37;0.80;;;0.40;;
61389;SDS011;47260;48.274;19.814;2023-05-18T01:51:12;2.25;;;0.60;;
61389;SDS011;47260;48.274;19.814;2023-05-18T01:52:47;1.40;;;0.50;;
61389;SDS011;47260;48.274;19.814;2023-05-18T01:54:23;1.77;;;0.43;;
61389;SDS011;47260;48.274;19.814;2023-05-18T01:55:56;2.63;;;0.50;;
61389;SDS011;47260;48.274;19.814;2023-05-18T01:57:30;1.70;;;0.98;;
61389;SDS011;47260;48.274;19.814;2023-05-18T01:59:03;1.58;;;0.43;;
61389;SDS011;47260;48.274;19.814;2023-05-18T02:00:35;2.28;;;0.50;;
61389;SDS011;47260;48.274;19.814;2023-05-18T02:02:06;2.80;;;1.92;;
61389;SDS011;47260;48.274;19.814;2023-05-18T02:03:39;7.85;;;1.33;;
61389;SDS011;47260;48.274;19.814;2023-05-18T02:05:10;5.65;;;3.38;;
61389;SDS011;47260;48.274;19.814;2023-05-18T02:06:42;1.80;;;1.30;;
61389;SDS011;47260;48.274;19.814;2023-05-18T02:08:14;0.20;;;0.20;;
61389;SDS011;47260;48.274;19.814;2023-05-18T02:09:46;1.70;;;0.50;;
61389;SDS011;47260;48.274;19.814;2023-05-18T02:11:18;1.13;;;0.50;;
61389;SDS011;47260;48.274;19.814;2023-05-18T02:12:51;0.40;;;0.40;;
61389;SDS011;47260;48.274;19.814;2023-05-18T02:14:23;0.30;;;0.20;;
61389;SDS011;47260;48.274;19.814;2023-05-18T02:15:54;1.95;;;0.30;;
61389;SDS011;47260;48.274;19.814;2023-05-18T02:17:26;0.32;;;0.30;;
61389;SDS011;47260;48.274;19.814;2023-05-18T02:18:57;0.50;;;0.40;;
61389;SDS011;47260;48.274;19.814;2023-05-18T02:20:29;0.90;;;0.30;;
61389;SDS011;47260;48.274;19.814;2023-05-18T02:22:02;0.80;;;0.40;;
61389;SDS011;47260;48.274;19.814;2023-05-18T02:23:35;0.57;;;0.30;;
61389;SDS011;47260;48.274;19.814;2023-05-18T02:25:06;1.55;;;0.50;;
61389;SDS011;47260;48.274;19.814;2023-05-18T02:26:40;1.02;;;0.60;;
61389;SDS011;47260;48.274;19.814;2023-05-18T02:28:13;0.95;;;0.52;;
61389;SDS011;47260;48.274;19.814;2023-05-18T02:29:44;1.55;;;0.40;;
61389;SDS011;47260;48.274;19.814;2023-05-18T02:31:15;1.88;;;0.80;;
61389;SDS011;47260;48.274;19.814;2023-05-18T02:32:47;0.93;;;0.60;;
61389;SDS011;47260;48.274;19.814;2023-05-18T02:34:18;2.03;;;0.68;;
61389;SDS011;47260;48.274;19.814;2023-05-18T02:35:51;1.95;;;0.50;;
61389;SDS011;47260;48.274;19.814;2023-05-18T02:37:23;1.02;;;0.40;;
61389;SDS011;47260;48.274;19.814;2023-05-18T02:38:54;0.93;;;0.77;;
61389;SDS011;47260;48.274;19.814;2023-05-18T02:40:26;2.42;;;1.20;;
61389;SDS011;47260;48.274;19.814;2023-05-18T02:41:57;0.88;;;0.70;;
61389;SDS011;47260;48.274;19.814;2023-05-18T02:43:30;1.38;;;0.50;;
61389;SDS011;47260;48.274;19.814;2023-05-18T02:45:01;0.70;;;0.60;;
61389;SDS011;47260;48.274;19.814;2023-05-18T02:46:33;0.55;;;0.50;;
61389;SDS011;47260;48.274;19.814;2023-05-18T02:48:05;0.60;;;0.32;;
61389;SDS011;47260;48.274;19.814;2023-05-18T02:49:37;1.30;;;0.40;;
61389;SDS011;47260;48.274;19.814;2023-05-18T02:51:08;0.98;;;0.60;;
61389;SDS011;47260;48.274;19.814;2023-05-18T02:52:40;1.55;;;0.60;;
61389;SDS011;47260;48.274;19.814;2023-05-18T02:54:13;2.22;;;0.50;;
61389;SDS011;47260;48.274;19.814;2023-05-18T02:55:46;1.20;;;0.50;;
61389;SDS011;47260;48.274;19.814;2023-05-18T02:57:22;1.42;;;0.40;;
61389;SDS011;47260;48.274;19.814;2023-05-18T02:59:04;0.98;;;0.60;;
61389;SDS011;47260;48.274;19.814;2023-05-18T03:00:41;6.22;;;2.28;;
61389;SDS011;47260;48.274;19.814;2023-05-18T03:02:13;3.95;;;1.10;;
61389;SDS011;47260;48.274;19.814;2023-05-18T03:03:45;2.97;;;1.30;;
61389;SDS011;47260;48.274;19.814;2023-05-18T03:05:17;1.13;;;0.60;;
61389;SDS011;47260;48.274;19.814;2023-05-18T03:06:53;3.70;;;0.80;;
61389;SDS011;47260;48.274;19.814;2023-05-18T03:08:27;1.85;;;0.60;;
61389;SDS011;47260;48.274;19.814;2023-05-18T03:09:58;1.33;;;1.00;;
61389;SDS011;47260;48.274;19.814;2023-05-18T03:11:34;2.22;;;1.52;;
61389;SDS011;47260;48.274;19.814;2023-05-18T03:13:06;2.15;;;1.15;;
61389;SDS011;47260;48.274;19.814;2023-05-18T03:14:40;1.67;;;1.48;;
61389;SDS011;47260;48.274;19.814;2023-05-18T03:16:11;1.98;;;1.40;;
61389;SDS011;47260;48.274;19.814;2023-05-18T03:17:43;2.67;;;1.25;;
61389;SDS011;47260;48.274;19.814;2023-05-18T03:19:14;3.13;;;1.20;;
61389;SDS011;47260;48.274;19.814;2023-05-18T03:20:46;3.00;;;1.88;;
61389;SDS011;47260;48.274;19.814;2023-05-18T03:22:19;1.77;;;0.90;;
61389;SDS011;47260;48.274;19.814;2023-05-18T03:23:50;2.15;;;0.82;;
61389;SDS011;47260;48.274;19.814;2023-05-18T03:25:21;1.48;;;0.50;;
61389;SDS011;47260;48.274;19.814;2023-05-18T03:26:55;1.35;;;0.70;;
61389;SDS011;47260;48.274;19.814;2023-05-18T03:28:26;1.42;;;1.08;;
61389;SDS011;47260;48.274;19.814;2023-05-18T03:29:59;7.75;;;3.00;;
61389;SDS011;47260;48.274;19.814;2023-05-18T03:31:32;5.97;;;2.92;;
61389;SDS011;47260;48.274;19.814;2023-05-18T03:33:05;3.35;;;2.30;;
61389;SDS011;47260;48.274;19.814;2023-05-18T03:34:36;8.05;;;3.80;;
61389;SDS011;47260;48.274;19.814;2023-05-18T03:36:08;6.90;;;2.90;;
61389;SDS011;47260;48.274;19.814;2023-05-18T03:37:42;5.07;;;2.50;;
61389;SDS011;47260;48.274;19.814;2023-05-18T03:39:14;3.25;;;1.88;;
61389;SDS011;47260;48.274;19.814;2023-05-18T03:40:45;4.13;;;2.10;;
61389;SDS011;47260;48.274;19.814;2023-05-18T03:42:16;1.48;;;1.00;;
61389;SDS011;47260;48.274;19.814;2023-05-18T03:43:48;1.13;;;0.80;;
61389;SDS011;47260;48.274;19.814;2023-05-18T03:45:21;3.45;;;0.85;;
61389;SDS011;47260;48.274;19.814;2023-05-18T03:46:52;1.05;;;0.70;;
61389;SDS011;47260;48.274;19.814;2023-05-18T03:48:25;1.23;;;0.75;;
61389;SDS011;47260;48.274;19.814;2023-05-18T03:49:56;0.65;;;0.65;;
61389;SDS011;47260;48.274;19.814;2023-05-18T03:51:28;1.17;;;0.88;;
61389;SDS011;47260;48.274;19.814;2023-05-18T03:52:59;1.88;;;0.75;;
61389;SDS011;47260;48.274;19.814;2023-05-18T03:54:31;1.33;;;1.17;;
61389;SDS011;47260;48.274;19.814;2023-05-18T03:56:03;4.85;;;1.20;;
61389;SDS011;47260;48.274;19.814;2023-05-18T03:57:33;0.73;;;0.73;;
61389;SDS011;47260;48.274;19.814;2023-05-18T03:59:06;1.42;;;0.77;;
61389;SDS011;47260;48.274;19.814;2023-05-18T04:00:38;0.90;;;0.85;;
61389;SDS011;47260;48.274;19.814;2023-05-18T04:02:11;1.38;;;1.20;;
61389;SDS011;47260;48.274;19.814;2023-05-18T04:03:42;4.82;;;2.38;;
61389;SDS011;47260;48.274;19.814;2023-05-18T04:05:15;4.80;;;2.60;;
61389;SDS011;47260;48.274;19.814;2023-05-18T04:06:46;9.68;;;4.82;;
61389;SDS011;47260;48.274;19.814;2023-05-18T04:08:18;2.08;;;1.63;;
61389;SDS011;47260;48.274;19.814;2023-05-18T04:09:50;3.03;;;1.58;;
61389;SDS011;47260;48.274;19.814;2023-05-18T04:11:21;1.23;;;0.82;;
61389;SDS011;47260;48.274;19.814;2023-05-18T04:12:52;0.85;;;0.85;;
61389;SDS011;47260;48.274;19.814;2023-05-18T04:14:23;1.05;;;0.80;;
61389;SDS011;47260;48.274;19.814;2023-05-18T04:15:58;1.45;;;0.77;;
61389;SDS011;47260;48.274;19.814;2023-05-18T04:17:29;2.58;;;1.00;;
61389;SDS011;47260;48.274;19.814;2023-05-18T04:19:02;4.35;;;1.15;;
61389;SDS011;47260;48.274;19.814;2023-05-18T04:20:35;1.38;;;1.10;;
61389;SDS011;47260;48.274;19.814;2023-05-18T04:22:07;1.20;;;1.00;;
61389;SDS011;47260;48.274;19.814;2023-05-18T04:23:39;0.68;;;0.65;;
61389;SDS011;47260;48.274;19.814;2023-05-18T04:25:11;0.70;;;0.70;;
61389;SDS011;47260;48.274;19.814;2023-05-18T04:26:42;1.42;;;0.82;;
61389;SDS011;47260;48.274;19.814;2023-05-18T04:28:14;1.63;;;0.90;;
61389;SDS011;47260;48.274;19.814;2023-05-18T04:29:46;0.82;;;0.80;;
61389;SDS011;47260;48.274;19.814;2023-05-18T04:31:20;1.63;;;0.77;;
61389;SDS011;47260;48.274;19.814;2023-05-18T04:32:52;2.15;;;0.70;;
61389;SDS011;47260;48.274;19.814;2023-05-18T04:34:28;0.55;;;0.55;;
61389;SDS011;47260;48.274;19.814;2023-05-18T04:36:00;1.98;;;0.88;;
61389;SDS011;47260;48.274;19.814;2023-05-18T04:37:34;4.90;;;2.25;;
61389;SDS011;47260;48.274;19.814;2023-05-18T04:39:11;4.65;;;2.22;;
61389;SDS011;47260;48.274;19.814;2023-05-18T04:40:43;3.03;;;2.20;;
61389;SDS011;47260;48.274;19.814;2023-05-18T04:42:16;2.53;;;1.77;;
61389;SDS011;47260;48.274;19.814;2023-05-18T04:43:47;2.83;;;1.92;;
61389;SDS011;47260;48.274;19.814;2023-05-18T04:45:20;2.25;;;1.48;;
61389;SDS011;47260;48.274;19.814;2023-05-18T04:46:56;1.70;;;1.50;;
61389;SDS011;47260;48.274;19.814;2023-05-18T04:48:29;1.80;;;1.23;;
61389;SDS011;47260;48.274;19.814;2023-05-18T04:50:01;1.85;;;1.10;;
61389;SDS011;47260;48.274;19.814;2023-05-18T04:51:33;1.40;;;0.68;;
61389;SDS011;47260;48.274;19.814;2023-05-18T04:53:04;1.45;;;0.88;;
61389;SDS011;47260;48.274;19.814;2023-05-18T04:54:37;1.85;;;0.93;;
61389;SDS011;47260;48.274;19.814;2023-05-18T04:56:10;2.47;;;0.88;;
61389;SDS011;47260;48.274;19.814;2023-05-18T04:57:43;2.03;;;1.08;;
61389;SDS011;47260;48.274;19.814;2023-05-18T04:59:16;1.42;;;0.60;;
61389;SDS011;47260;48.274;19.814;2023-05-18T05:00:47;1.67;;;0.77;;
61389;SDS011;47260;48.274;19.814;2023-05-18T05:02:20;2.30;;;0.65;;
61389;SDS011;47260;48.274;19.814;2023-05-18T05:03:51;0.85;;;0.65;;
61389;SDS011;47260;48.274;19.814;2023-05-18T05:05:23;1.58;;;0.80;;
61389;SDS011;47260;48.274;19.814;2023-05-18T05:06:56;3.40;;;1.05;;
61389;SDS011;47260;48.274;19.814;2023-05-18T05:08:27;0.85;;;0.75;;
61389;SDS011;47260;48.274;19.814;2023-05-18T05:09:59;1.70;;;0.63;;
61389;SDS011;47260;48.274;19.814;2023-05-18T05:11:31;1.10;;;0.98;;
61389;SDS011;47260;48.274;19.814;2023-05-18T05:13:02;1.17;;;0.73;;
61389;SDS011;47260;48.274;19.814;2023-05-18T05:14:34;1.50;;;0.70;;
61389;SDS011;47260;48.274;19.814;2023-05-18T05:16:06;3.60;;;0.90;;
61389;SDS011;47260;48.274;19.814;2023-05-18T05:17:38;3.10;;;0.85;;
61389;SDS011;47260;48.274;19.814;2023-05-18T05:19:11;0.90;;;0.73;;
61389;SDS011;47260;48.274;19.814;2023-05-18T05:20:43;3.05;;;0.80;;
61389;SDS011;47260;48.274;19.814;2023-05-18T05:22:15;1.92;;;0.93;;
61389;SDS011;47260;48.274;19.814;2023-05-18T05:23:49;1.52;;;0.90;;
61389;SDS011;47260;48.274;19.814;2023-05-18T05:25:21;1.60;;;0.88;;
61389;SDS011;47260;48.274;19.814;2023-05-18T05:26:52;0.90;;;0.90;;
61389;SDS011;47260;48.274;19.814;2023-05-18T05:28:23;4.18;;;1.00;;
61389;SDS011;47260;48.274;19.814;2023-05-18T05:29:54;2.42;;;1.50;;
61389;SDS011;47260;48.274;19.814;2023-05-18T05:31:26;1.63;;;0.98;;
61389;SDS011;47260;48.274;19.814;2023-05-18T05:32:59;1.95;;;1.40;;
61389;SDS011;47260;48.274;19.814;2023-05-18T05:34:31;1.95;;;1.55;;
61389;SDS011;47260;48.274;19.814;2023-05-18T05:36:04;1.95;;;1.67;;
61389;SDS011;47260;48.274;19.814;2023-05-18T05:37:37;2.88;;;1.60;;
61389;SDS011;47260;48.274;19.814;2023-05-18T05:39:09;3.40;;;1.63;;
61389;SDS011;47260;48.274;19.814;2023-05-18T05:40:41;2.30;;;1.42;;
61389;SDS011;47260;48.274;19.814;2023-05-18T05:42:12;1.63;;;1.27;;
61389;SDS011;47260;48.274;19.814;2023-05-18T05:43:44;2.67;;;1.60;;
61389;SDS011;47260;48.274;19.814;2023-05-18T05:45:16;2.80;;;2.10;;
61389;SDS011;47260;48.274;19.814;2023-05-18T05:46:53;2.92;;;2.20;;
61389;SDS011;47260;48.274;19.814;2023-05-18T05:48:27;2.58;;;1.65;;
61389;SDS011;47260;48.274;19.814;2023-05-18T05:49:59;3.75;;;1.83;;
61389;SDS011;47260;48.274;19.814;2023-05-18T05:51:30;3.42;;;2.20;;
61389;SDS011;47260;48.274;19.814;2023-05-18T05:53:02;2.72;;;2.30;;
61389;SDS011;47260;48.274;19.814;2023-05-18T05:54:38;3.67;;;2.13;;
61389;SDS011;47260;48.274;19.814;2023-05-18T05:56:10;2.33;;;1.80;;
61389;SDS011;47260;48.274;19.814;2023-05-18T05:57:44;3.17;;;2.22;;
61389;SDS011;47260;48.274;19.814;2023-05-18T05:59:16;3.67;;;2.05;;
61389;SDS011;47260;48.274;19.814;2023-05-18T06:00:47;4.55;;;2.50;;
61389;SDS011;47260;48.274;19.814;2023-05-18T06:02:19;5.05;;;2.25;;
61389;SDS011;47260;48.274;19.814;2023-05-18T06:03:52;2.25;;;1.67;;
61389;SDS011;47260;48.274;19.814;2023-05-18T06:05:23;3.35;;;2.00;;
61389;SDS011;47260;48.274;19.814;2023-05-18T06:06:56;3.17;;;1.80;;
61389;SDS011;47260;48.274;19.814;2023-05-18T06:08:28;2.75;;;1.70;;
61389;SDS011;47260;48.274;19.814;2023-05-18T06:10:00;2.42;;;1.75;;
61389;SDS011;47260;48.274;19.814;2023-05-18T06:11:33;2.85;;;1.80;;
61389;SDS011;47260;48.274;19.814;2023-05-18T06:13:04;4.53;;;2.20;;
61389;SDS011;47260;48.274;19.814;2023-05-18T06:14:48;2.75;;;1.60;;
61389;SDS011;47260;48.274;19.814;2023-05-18T06:16:22;3.65;;;1.63;;
61389;SDS011;47260;48.274;19.814;2023-05-18T06:17:53;2.08;;;1.20;;
61389;SDS011;47260;48.274;19.814;2023-05-18T06:19:27;2.00;;;1.10;;
61389;SDS011;47260;48.274;19.814;2023-05-18T06:20:59;1.73;;;1.45;;
61389;SDS011;47260;48.274;19.814;2023-05-18T06:22:31;2.40;;;1.52;;
61389;SDS011;47260;48.274;19.814;2023-05-18T06:24:25;1.85;;;1.65;;
61389;SDS011;47260;48.274;19.814;2023-05-18T06:26:11;2.38;;;1.98;;
61389;SDS011;47260;48.274;19.814;2023-05-18T06:28:03;3.33;;;1.80;;
61389;SDS011;47260;48.274;19.814;2023-05-18T06:29:57;1.70;;;1.50;;
61389;SDS011;47260;48.274;19.814;2023-05-18T06:31:43;1.65;;;1.50;;
61389;SDS011;47260;48.274;19.814;2023-05-18T06:33:21;1.42;;;1.33;;
61389;SDS011;47260;48.274;19.814;2023-05-18T06:34:54;2.22;;;1.45;;
61389;SDS011;47260;48.274;19.814;2023-05-18T06:36:26;2.30;;;1.58;;
61389;SDS011;47260;48.274;19.814;2023-05-18T06:37:58;1.90;;;1.10;;
61389;SDS011;47260;48.274;19.814;2023-05-18T06:39:30;2.78;;;1.40;;
61389;SDS011;47260;48.274;19.814;2023-05-18T06:41:02;1.90;;;1.35;;
61389;SDS011;47260;48.274;19.814;2023-05-18T06:42:33;3.33;;;1.33;;
61389;SDS011;47260;48.274;19.814;2023-05-18T06:44:29;1.83;;;1.60;;
61389;SDS011;47260;48.274;19.814;2023-05-18T06:46:21;2.05;;;1.45;;
61389;SDS011;47260;48.274;19.814;2023-05-18T06:47:57;1.20;;;1.10;;
61389;SDS011;47260;48.274;19.814;2023-05-18T06:49:29;1.35;;;1.13;;
61389;SDS011;47260;48.274;19.814;2023-05-18T06:51:03;1.35;;;1.08;;
61389;SDS011;47260;48.274;19.814;2023-05-18T06:52:35;1.38;;;1.05;;
61389;SDS011;47260;48.274;19.814;2023-05-18T06:54:06;1.33;;;0.95;;
61389;SDS011;47260;48.274;19.814;2023-05-18T06:55:38;1.13;;;1.02;;
61389;SDS011;47260;48.274;19.814;2023-05-18T06:57:10;1.45;;;0.90;;
61389;SDS011;47260;48.274;19.814;2023-05-18T06:58:42;1.38;;;0.88;;
61389;SDS011;47260;48.274;19.814;2023-05-18T07:00:15;1.20;;;0.95;;
61389;SDS011;47260;48.274;19.814;2023-05-18T07:01:48;1.10;;;1.00;;
61389;SDS011;47260;48.274;19.814;2023-05-18T07:03:19;2.38;;;1.15;;
61389;SDS011;47260;48.274;19.814;2023-05-18T07:04:52;1.40;;;1.30;;
61389;SDS011;47260;48.274;19.814;2023-05-18T07:06:25;1.58;;;1.45;;
61389;SDS011;47260;48.274;19.814;2023-05-18T07:07:56;3.72;;;2.85;;
61389;SDS011;47260;48.274;19.814;2023-05-18T07:09:28;4.53;;;3.45;;
61389;SDS011;47260;48.274;19.814;2023-05-18T07:11:00;8.43;;;4.93;;
61389;SDS011;47260;48.274;19.814;2023-05-18T07:12:32;3.30;;;2.60;;
61389;SDS011;47260;48.274;19.814;2023-05-18T07:14:03;6.05;;;4.13;;
61389;SDS011;47260;48.274;19.814;2023-05-18T07:15:35;6.72;;;4.95;;
61389;SDS011;47260;48.274;19.814;2023-05-18T07:17:07;16.48;;;13.40;;
61389;SDS011;47260;48.274;19.814;2023-05-18T07:18:38;13.98;;;12.35;;
61389;SDS011;47260;48.274;19.814;2023-05-18T07:20:11;4.10;;;3.70;;
61389;SDS011;47260;48.274;19.814;2023-05-18T07:21:44;3.28;;;2.63;;
61389;SDS011;47260;48.274;19.814;2023-05-18T07:23:16;3.33;;;2.08;;
61389;SDS011;47260;48.274;19.814;2023-05-18T07:24:47;5.28;;;2.70;;
61389;SDS011;47260;48.274;19.814;2023-05-18T07:26:19;4.50;;;2.47;;
61389;SDS011;47260;48.274;19.814;2023-05-18T07:27:52;2.90;;;2.55;;
61389;SDS011;47260;48.274;19.814;2023-05-18T07:29:24;6.75;;;4.75;;
61389;SDS011;47260;48.274;19.814;2023-05-18T07:30:56;5.97;;;4.40;;
61389;SDS011;47260;48.274;19.814;2023-05-18T07:32:28;7.18;;;3.53;;
61389;SDS011;47260;48.274;19.814;2023-05-18T07:33:59;1.65;;;1.55;;
61389;SDS011;47260;48.274;19.814;2023-05-18T07:35:31;3.03;;;2.53;;
61389;SDS011;47260;48.274;19.814;2023-05-18T07:37:04;1.50;;;0.63;;
61389;SDS011;47260;48.274;19.814;2023-05-18T07:38:36;0.88;;;0.60;;
61389;SDS011;47260;48.274;19.814;2023-05-18T07:40:08;4.68;;;3.45;;
61389;SDS011;47260;48.274;19.814;2023-05-18T07:41:40;4.07;;;2.10;;
61389;SDS011;47260;48.274;19.814;2023-05-18T07:43:12;2.90;;;1.70;;
61389;SDS011;47260;48.274;19.814;2023-05-18T07:44:43;3.83;;;2.22;;
61389;SDS011;47260;48.274;19.814;2023-05-18T07:46:15;4.20;;;2.63;;
61389;SDS011;47260;48.274;19.814;2023-05-18T07:47:47;3.05;;;2.03;;
61389;SDS011;47260;48.274;19.814;2023-05-18T07:49:18;4.15;;;2.20;;
61389;SDS011;47260;48.274;19.814;2023-05-18T07:50:52;4.38;;;2.95;;
61389;SDS011;47260;48.274;19.814;2023-05-18T07:52:25;4.47;;;2.92;;
61389;SDS011;47260;48.274;19.814;2023-05-18T07:53:57;2.92;;;2.30;;
61389;SDS011;47260;48.274;19.814;2023-05-18T07:55:29;4.00;;;2.53;;
61389;SDS011;47260;48.274;19.814;2023-05-18T07:57:01;4.18;;;1.85;;
61389;SDS011;47260;48.274;19.814;2023-05-18T07:58:33;2.72;;;1.55;;
61389;SDS011;47260;48.274;19.814;2023-05-18T08:00:05;4.30;;;2.22;;
61389;SDS011;47260;48.274;19.814;2023-05-18T08:01:45;3.15;;;1.80;;
61389;SDS011;47260;48.274;19.814;2023-05-18T08:03:18;2.85;;;2.05;;
61389;SDS011;47260;48.274;19.814;2023-05-18T08:04:49;1.55;;;1.42;;
61389;SDS011;47260;48.274;19.814;2023-05-18T08:06:22;2.20;;;1.75;;
61389;SDS011;47260;48.274;19.814;2023-05-18T08:07:55;3.70;;;1.98;;
61389;SDS011;47260;48.274;19.814;2023-05-18T08:09:27;2.58;;;1.67;;
61389;SDS011;47260;48.274;19.814;2023-05-18T08:10:58;1.05;;;0.90;;
61389;SDS011;47260;48.274;19.814;2023-05-18T08:12:30;2.85;;;1.17;;
61389;SDS011;47260;48.274;19.814;2023-05-18T08:14:02;3.35;;;1.10;;
61389;SDS011;47260;48.274;19.814;2023-05-18T08:15:34;2.63;;;0.93;;
61389;SDS011;47260;48.274;19.814;2023-05-18T08:17:07;2.47;;;1.20;;
61389;SDS011;47260;48.274;19.814;2023-05-18T08:18:39;2.35;;;1.63;;
61389;SDS011;47260;48.274;19.814;2023-05-18T08:20:11;3.03;;;1.70;;
61389;SDS011;47260;48.274;19.814;2023-05-18T08:21:43;1.92;;;1.30;;
61389;SDS011;47260;48.274;19.814;2023-05-18T08:23:16;3.38;;;1.52;;
61389;SDS011;47260;48.274;19.814;2023-05-18T08:24:48;1.30;;;1.20;;
61389;SDS011;47260;48.274;19.814;2023-05-18T08:26:20;0.95;;;0.85;;
61389;SDS011;47260;48.274;19.814;2023-05-18T08:27:52;1.15;;;0.52;;
61389;SDS011;47260;48.274;19.814;2023-05-18T08:29:23;0.73;;;0.73;;
61389;SDS011;47260;48.274;19.814;2023-05-18T08:30:55;1.58;;;0.90;;
61389;SDS011;47260;48.274;19.814;2023-05-18T08:32:27;0.93;;;0.82;;
61389;SDS011;47260;48.274;19.814;2023-05-18T08:33:59;0.60;;;0.60;;
61389;SDS011;47260;48.274;19.814;2023-05-18T08:35:31;0.68;;;0.65;;
61389;SDS011;47260;48.274;19.814;2023-05-18T08:37:02;1.35;;;0.70;;
61389;SDS011;47260;48.274;19.814;2023-05-18T08:38:36;0.50;;;0.50;;
61389;SDS011;47260;48.274;19.814;2023-05-18T08:40:08;1.35;;;1.17;;
61389;SDS011;47260;48.274;19.814;2023-05-18T08:41:42;0.65;;;0.65;;
61389;SDS011;47260;48.274;19.814;2023-05-18T08:43:21;1.40;;;0.77;;
61389;SDS011;47260;48.274;19.814;2023-05-18T08:45:10;4.00;;;0.80;;
61389;SDS011;47260;48.274;19.814;2023-05-18T08:46:44;1.58;;;1.33;;
61389;SDS011;47260;48.274;19.814;2023-05-18T08:48:17;1.40;;;1.00;;
61389;SDS011;47260;48.274;19.814;2023-05-18T08:49:53;2.13;;;1.77;;
61389;SDS011;47260;48.274;19.814;2023-05-18T08:51:28;0.95;;;0.50;;
61389;SDS011;47260;48.274;19.814;2023-05-18T08:53:02;2.03;;;1.38;;
61389;SDS011;47260;48.274;19.814;2023-05-18T08:54:38;0.70;;;0.70;;
61389;SDS011;47260;48.274;19.814;2023-05-18T08:56:11;2.17;;;1.88;;
61389;SDS011;47260;48.274;19.814;2023-05-18T08:57:45;4.75;;;3.55;;
61389;SDS011;47260;48.274;19.814;2023-05-18T08:59:23;4.05;;;2.83;;
61389;SDS011;47260;48.274;19.814;2023-05-18T09:00:57;1.48;;;1.38;;
61389;SDS011;47260;48.274;19.814;2023-05-18T09:02:29;0.80;;;0.80;;
61389;SDS011;47260;48.274;19.814;2023-05-18T09:04:01;0.75;;;0.50;;
61389;SDS011;47260;48.274;19.814;2023-05-18T09:05:34;2.67;;;2.47;;
61389;SDS011;47260;48.274;19.814;2023-05-18T09:07:06;1.27;;;0.63;;
61389;SDS011;47260;48.274;19.814;2023-05-18T09:08:40;1.70;;;1.60;;
61389;SDS011;47260;48.274;19.814;2023-05-18T09:10:14;0.85;;;0.68;;
61389;SDS011;47260;48.274;19.814;2023-05-18T09:11:45;0.77;;;0.77;;
61389;SDS011;47260;48.274;19.814;2023-05-18T09:13:17;1.30;;;1.20;;